Daily Tabular Data
[Select Refresh to Update]


2/14/18
Time         Wind Dir   Wind Spd  Wind Gust     Hum In   Humidity    Temp In       Temp  Raw Barom   Tot Rain Wind Chill Heat Ix In Heat Index  Dew Point  DailyRain   HourRain   RainRate
                            mph        mph          %          %         F         F         in         in         F         F         F         F         in         in      in/hr
12:00am           315          0          0         36         65       69.7       54.5      29.30       1.93       54.5       69.3       56.9       43.0       0.00       0.00      0.000
12:30am           320          0          0         36         67       69.6       55.0      29.29       1.93       55.0       69.2       57.6       44.3       0.00       0.00      0.000
1:00am            320          0          0         36         63       69.6       55.3      29.29       1.93       55.3       69.2       57.4       42.9       0.00       0.00      0.000
1:30am            342          0          1         36         64       69.4       55.0      29.28       1.93       55.0       69.0       57.3       43.1       0.00       0.00      0.000
2:00am             19          0          1         36         65       69.4       55.8      29.28       1.93       55.8       69.0       58.2       44.2       0.00       0.00      0.000
2:30am             19          0          0         36         68       69.4       55.3      29.27       1.93       55.3       69.0       58.0       44.9       0.00       0.00      0.000
3:00am             19          0          1         36         63       69.3       55.5      29.25       1.93       55.5       68.9       57.6       43.1       0.00       0.00      0.000
3:30am             17          0          0         36         70       69.4       53.1      29.24       1.93       53.1       69.0       56.1       43.6       0.00       0.00      0.000
4:00am            296          0          1         36         72       69.2       52.6      29.24       1.93       52.6       68.8       55.8       43.8       0.00       0.00      0.000
4:30am            296          0          0         36         72       69.2       52.6      29.24       1.93       52.6       68.8       55.8       43.8       0.00       0.00     -0.010
5:00am            296          0          0         36         72       69.2       52.6      29.24       1.93       52.6       68.8       55.8       43.8       0.00       0.00     -0.010
5:30am            296          0          0         36         72       69.1       52.6      29.25       1.93       52.6       68.7       55.8       43.8       0.00       0.00     -0.010
6:00am            296          0          0         36         72       69.0       52.6      29.24       1.93       52.6       68.6       55.8       43.8       0.00       0.00     -0.010
6:30am            296          0          0         36         72       68.9       52.6      29.24       1.93       52.6       68.5       55.8       43.8       0.00       0.00     -0.010
7:00am            296          0          0         36         72       68.7       52.6      29.25       1.93       52.6       68.3       55.8       43.8       0.00       0.00     -0.010
7:30am            296          0          0         36         72       68.6       52.6      29.26       1.93       52.6       68.2       55.8       43.8       0.00       0.00     -0.010
8:00am            296          0          0         36         72       68.6       52.6      29.27       1.93       52.6       68.2       55.8       43.8       0.00       0.00     -0.010
8:30am            296          0          0         36         72       68.9       52.6      29.28       1.93       52.6       68.5       55.8       43.8       0.00       0.00     -0.010
9:00am            296          0          0         36         72       69.0       52.6      29.28       1.93       52.6       68.6       55.8       43.8       0.00       0.00     -0.010
9:30am            257          0          0         36         57       69.7       64.9      29.28       1.93       64.9       69.3       66.4       49.3       0.00       0.00      0.000
10:00am           132          3         12         36         51       69.8       67.1      29.29       1.93       67.1       69.4       68.0       48.4       0.00       0.00      0.000
10:30am           113          3         14         36         51       69.7       67.5      29.28       1.93       67.5       69.3       68.4       48.8       0.00       0.00      0.000
11:00am           189          3         13         36         51       69.8       67.3      29.28       1.93       67.3       69.4       68.2       48.6       0.00       0.00      0.000
11:30am           102          0         10         36         47       69.8       68.8      29.27       1.93       68.8       69.4       69.3       47.8       0.00       0.00      0.000
12:00pm           130          4         10         36         42       69.9       70.4      29.26       1.93       70.4       69.5       70.5       46.2       0.00       0.00      0.000
12:30pm           100          7         13         36         42       70.1       70.6      29.24       1.93       70.6       69.7       70.7       46.4       0.00       0.00      0.000
1:00pm            101          3         13         36         46       70.2       69.8      29.24       1.93       69.8       69.8       70.2       48.1       0.00       0.00      0.000
1:30pm            147          5         12         36         47       70.4       68.8      29.23       1.93       68.8       70.0       69.3       47.8       0.00       0.00      0.000
2:00pm            190          2         11         37         48       70.5       68.0      29.21       1.93       68.0       70.2       68.6       47.6       0.00       0.00      0.000
2:30pm            128          0          6         37         48       70.6       67.6      29.20       1.93       67.6       70.3       68.2       47.2       0.00       0.00      0.000
3:00pm            225          3          9         37         42       70.7       69.4      29.20       1.93       69.4       70.4       69.5       45.3       0.00       0.00      0.000
3:30pm             49          0         10         37         42       70.8       69.6      29.20       1.93       69.6       70.5       69.7       45.5       0.00       0.00      0.000
4:00pm            207          2          8         37         48       70.9       68.0      29.20       1.93       68.0       70.6       68.6       47.6       0.00       0.00      0.000
4:30pm            135          0          8         37         51       71.0       67.0      29.20       1.93       67.0       70.7       67.9       48.3       0.00       0.00      0.000
5:00pm            113          0          5         37         50       71.0       66.2      29.20       1.93       66.2       70.7       67.0       47.0       0.00       0.00      0.000
5:30pm            281          3          9         37         55       71.1       62.5      29.20       1.93       62.5       70.8       63.8       46.1       0.00       0.00      0.000
6:00pm            283          2          8         37         56       71.1       61.6      29.20       1.93       61.6       70.8       63.0       45.8       0.00       0.00      0.000
6:30pm            285          0          6         37         59       71.2       61.2      29.20       1.93       61.2       70.9       62.9       46.8       0.00       0.00      0.000
7:00pm            267          0          2         37         62       71.2       60.0      29.22       1.93       60.0       70.9       62.0       47.0       0.00       0.00      0.000
7:30pm            105          0          3         37         62       71.1       60.0      29.22       1.93       60.0       70.8       62.0       47.0       0.00       0.00      0.000
8:00pm            103          2          4         37         61       71.1       60.2      29.24       1.93       60.2       70.8       62.1       46.7       0.00       0.00      0.000
8:30pm             61          1          8         37         62       71.1       59.6      29.24       1.93       59.6       70.8       61.6       46.6       0.00       0.00      0.000
9:00pm            100          1          7         37         64       71.1       58.7      29.25       1.93       58.7       70.8       61.0       46.6       0.00       0.00      0.000
9:30pm             88          0          5         37         63       71.1       60.1      29.26       1.93       60.1       70.8       62.2       47.5       0.00       0.00      0.000
10:00pm            94          0          3         37         68       71.0       57.3      29.26       1.93       57.3       70.7       60.0       46.8       0.00       0.00      0.000
10:30pm            61          0          3         37         70       70.9       56.2      29.27       1.93       56.2       70.6       59.2       46.6       0.00       0.00      0.000
11:00pm            99          2          3         38         70       70.9       56.0      29.26       1.93       56.0       70.7       59.0       46.4       0.00       0.00      0.000
11:30pm            86          0          3         38         73       70.7       55.1      29.26       1.93       55.1       70.5       58.4       46.6       0.00       0.00      0.000